Emison, Indiana
Current Conditions -  °F | °C
As of 5:53 AM on Sunday 21 Dec 2014 (Local Time) from KLWV Reporting Station
Haze Haze  
Wind Chill: 16°   Ceiling: Unl
Heat Index: 23°   Visibility: 3mi
Dew Point: 21°   Wind: 6mph
Humidity: 92%   Direction: 80°E
Pressure: 30.29"   Gusts: NA
Location:  38.8517°N, 87.414°W
Report Text: KLWV 211153Z AUTO 08005KT 3SM BR CLR M05/M06 A3029 RMK AO2 SLP263 I1000 I6000 T10501061 11033 21050 55001
Loading
Personal Weather Stations






























Interactive Weather Map New forecast layout! Learn more

10-Day Weather Forecast

Advertisements
Track Severe Weather on mobile